createdAt,value
2022-11-05T00:00:30.992Z,7.88
2022-11-05T00:03:16.760Z,7.88
2022-11-05T00:06:03.736Z,7.89
2022-11-05T00:08:49.725Z,7.89
2022-11-05T00:11:18.629Z,7.84
2022-11-05T00:14:04.516Z,7.95
2022-11-05T00:16:46.432Z,7.93
2022-11-05T00:19:15.153Z,7.93
2022-11-05T00:22:03.549Z,7.99
2022-11-05T00:24:49.013Z,7.98
2022-11-05T00:27:17.389Z,7.92
2022-11-05T00:29:45.812Z,7.92
2022-11-05T00:32:15.598Z,7.94
2022-11-05T00:34:43.906Z,7.98
2022-11-05T00:37:12.343Z,7.97
2022-11-05T00:39:40.661Z,7.92
2022-11-05T00:42:34.874Z,7.70
2022-11-05T00:45:03.271Z,7.82
2022-11-05T00:47:51.753Z,7.84
2022-11-05T00:50:21.077Z,7.77
2022-11-05T00:52:57.897Z,7.74
2022-11-05T00:55:28.815Z,7.74
2022-11-05T00:57:57.845Z,7.57
2022-11-05T01:00:28.708Z,7.74
2022-11-05T01:03:01.498Z,7.70
2022-11-05T01:05:30.689Z,7.44
2022-11-05T01:07:59.581Z,7.68
2022-11-05T01:10:28.826Z,7.63
2022-11-05T01:12:57.805Z,7.71
2022-11-05T01:15:26.267Z,7.72
2022-11-05T01:17:54.562Z,7.73
2022-11-05T01:20:24.425Z,7.75
2022-11-05T01:22:53.118Z,7.76
2022-11-05T01:25:21.572Z,7.77
2022-11-05T01:27:50.419Z,7.74
2022-11-05T01:30:18.986Z,7.73
2022-11-05T01:32:47.390Z,7.70
2022-11-05T01:35:17.245Z,7.71
2022-11-05T01:37:47.069Z,7.45
2022-11-05T01:40:17.330Z,7.77
2022-11-05T01:42:46.495Z,7.63
2022-11-05T01:45:17.838Z,7.73
2022-11-05T01:47:59.886Z,7.67
2022-11-05T01:50:39.702Z,7.75
2022-11-05T01:53:16.253Z,7.14
2022-11-05T01:55:49.319Z,7.72
2022-11-05T01:58:22.670Z,7.50
2022-11-05T02:00:51.146Z,7.70
2022-11-05T02:03:20.672Z,7.73
2022-11-05T02:05:51.958Z,7.66
2022-11-05T02:08:36.593Z,7.65
2022-11-05T02:11:05.106Z,7.60
2022-11-05T02:13:33.545Z,7.63
2022-11-05T02:16:08.079Z,7.63
2022-11-05T02:18:50.021Z,7.59
2022-11-05T02:21:47.547Z,7.60
2022-11-05T02:24:44.241Z,7.60
2022-11-05T02:27:20.377Z,7.57
2022-11-05T02:30:22.169Z,7.59
2022-11-05T02:33:24.396Z,7.55
2022-11-05T02:36:10.550Z,7.55
2022-11-05T02:38:44.489Z,7.56
2022-11-05T02:41:24.761Z,7.42
2022-11-05T02:44:06.230Z,7.50
2022-11-05T02:46:46.062Z,7.69
2022-11-05T02:49:28.678Z,7.66
2022-11-05T02:52:00.056Z,7.67
2022-11-05T02:54:32.816Z,7.39
2022-11-05T02:57:03.912Z,7.68
2022-11-05T02:59:32.381Z,7.75
2022-11-05T03:02:02.504Z,7.78
2022-11-05T03:04:33.489Z,7.80
2022-11-05T03:07:28.485Z,7.79
2022-11-05T03:10:13.058Z,7.53
2022-11-05T03:12:54.199Z,7.61
2022-11-05T03:15:40.715Z,7.77
2022-11-05T03:18:16.382Z,7.67
2022-11-05T03:20:51.682Z,7.74
2022-11-05T03:23:29.119Z,7.35
2022-11-05T03:26:03.518Z,7.74
2022-11-05T03:28:36.863Z,7.74
2022-11-05T03:31:07.547Z,7.43
2022-11-05T03:33:39.044Z,7.71
2022-11-05T03:36:16.347Z,7.73
2022-11-05T03:38:51.017Z,7.72
2022-11-05T03:41:22.055Z,7.70
2022-11-05T03:43:55.989Z,7.74
2022-11-05T03:46:28.046Z,7.71
2022-11-05T03:48:58.484Z,7.71
2022-11-05T03:51:37.783Z,7.73
2022-11-05T03:54:07.165Z,7.74
2022-11-05T03:56:42.009Z,7.74
2022-11-05T03:59:12.801Z,7.73
2022-11-05T04:01:42.359Z,7.71
2022-11-05T04:04:11.594Z,7.59
2022-11-05T04:06:58.960Z,7.76
2022-11-05T04:09:44.501Z,7.76
2022-11-05T04:12:30.612Z,7.76
2022-11-05T04:14:59.091Z,7.49
2022-11-05T04:17:26.415Z,7.53
2022-11-05T04:20:20.370Z,7.17
2022-11-05T04:23:07.532Z,7.78
2022-11-05T04:25:36.325Z,7.79
2022-11-05T04:28:04.753Z,7.79
2022-11-05T04:30:32.114Z,7.83
2022-11-05T04:33:03.450Z,7.79
2022-11-05T04:35:34.051Z,7.78
2022-11-05T04:38:04.642Z,7.63
2022-11-05T04:40:35.778Z,7.75
2022-11-05T04:43:04.690Z,7.73
2022-11-05T04:45:35.704Z,7.52
2022-11-05T04:48:05.045Z,7.59
2022-11-05T04:50:34.282Z,7.69
2022-11-05T04:53:04.732Z,7.69
2022-11-05T04:55:33.206Z,7.68
2022-11-05T04:58:01.900Z,7.71
2022-11-05T05:00:30.641Z,7.67
2022-11-05T05:02:59.206Z,7.67
2022-11-05T05:05:27.970Z,7.68
2022-11-05T05:07:56.616Z,7.61
2022-11-05T05:10:26.423Z,7.66
2022-11-05T05:12:55.360Z,7.61
2022-11-05T05:15:23.861Z,7.62
2022-11-05T05:17:52.743Z,6.94
2022-11-05T05:20:41.043Z,7.59
2022-11-05T05:23:10.193Z,7.57
2022-11-05T05:25:40.488Z,7.58
2022-11-05T05:28:08.862Z,7.31
2022-11-05T05:30:37.339Z,7.62
2022-11-05T05:33:06.246Z,7.63
2022-11-05T05:35:34.669Z,7.69
2022-11-05T05:38:02.990Z,7.45
2022-11-05T05:40:31.542Z,7.34
2022-11-05T05:43:01.391Z,7.62
2022-11-05T05:45:29.743Z,7.58
2022-11-05T05:47:58.175Z,7.56
2022-11-05T05:50:26.750Z,7.55
2022-11-05T05:52:55.298Z,7.46
2022-11-05T05:55:23.617Z,7.60
2022-11-05T05:57:52.224Z,7.58
2022-11-05T06:00:22.515Z,7.58
2022-11-05T06:02:50.970Z,7.58
2022-11-05T06:05:19.446Z,7.60
2022-11-05T06:07:48.384Z,7.31
2022-11-05T06:10:18.815Z,7.50
2022-11-05T06:12:47.800Z,7.52
2022-11-05T06:15:16.378Z,7.18
2022-11-05T06:17:46.320Z,7.52
2022-11-05T06:20:14.841Z,7.53
2022-11-05T06:22:43.278Z,7.54
2022-11-05T06:25:12.226Z,7.53
2022-11-05T06:27:40.553Z,7.53
2022-11-05T06:30:10.574Z,7.41
2022-11-05T06:32:39.006Z,7.59
2022-11-05T06:35:10.356Z,7.62
2022-11-05T06:37:38.797Z,7.63
2022-11-05T06:40:08.447Z,7.65
2022-11-05T06:42:37.161Z,7.60
2022-11-05T06:45:06.148Z,7.69
2022-11-05T06:47:34.723Z,7.72
2022-11-05T06:50:03.157Z,7.74
2022-11-05T06:52:35.923Z,7.78
2022-11-05T06:55:08.914Z,7.76
2022-11-05T06:57:39.216Z,7.74
2022-11-05T07:00:10.047Z,7.75
2022-11-05T07:02:38.406Z,7.78
2022-11-05T07:05:07.457Z,7.83
2022-11-05T07:07:37.335Z,7.65
2022-11-05T07:10:07.002Z,7.75
2022-11-05T07:12:35.399Z,7.75
2022-11-05T07:15:03.801Z,7.76
2022-11-05T07:17:32.255Z,7.80
2022-11-05T07:20:00.673Z,7.82
2022-11-05T07:22:29.017Z,7.78
2022-11-05T07:24:58.826Z,7.80
2022-11-05T07:27:27.185Z,7.84
2022-11-05T07:29:55.764Z,7.86
2022-11-05T07:32:24.559Z,7.88
2022-11-05T07:34:52.898Z,7.89
2022-11-05T07:37:21.217Z,7.91
2022-11-05T07:39:49.562Z,7.93
2022-11-05T07:42:19.363Z,7.94
2022-11-05T07:44:47.710Z,7.82
2022-11-05T07:47:16.066Z,7.97
2022-11-05T07:49:44.450Z,7.98
2022-11-05T07:52:12.817Z,8.01
2022-11-05T07:54:41.150Z,8.06
2022-11-05T07:57:09.693Z,8.11
2022-11-05T07:59:39.461Z,8.06
2022-11-05T08:02:10.556Z,8.14
2022-11-05T08:04:40.454Z,8.20
2022-11-05T08:07:08.736Z,8.15
2022-11-05T08:09:37.144Z,8.15
2022-11-05T08:12:06.201Z,8.14
2022-11-05T08:14:36.441Z,8.13
2022-11-05T08:17:08.460Z,8.17
2022-11-05T08:19:37.262Z,8.10
2022-11-05T08:22:05.661Z,8.22
2022-11-05T08:24:34.039Z,8.26
2022-11-05T08:27:02.524Z,8.23
2022-11-05T08:29:30.856Z,8.24
2022-11-05T08:31:59.158Z,8.20
2022-11-05T08:34:29.321Z,8.28
2022-11-05T08:36:57.693Z,8.28
2022-11-05T08:39:26.680Z,8.24
2022-11-05T08:41:56.354Z,8.17
2022-11-05T08:44:24.689Z,8.15
2022-11-05T08:46:53.117Z,8.14
2022-11-05T08:49:21.503Z,8.01
2022-11-05T08:51:51.371Z,8.31
2022-11-05T08:54:19.774Z,8.36
2022-11-05T08:56:48.038Z,8.30
2022-11-05T08:59:16.470Z,8.28
2022-11-05T09:01:45.002Z,8.32
2022-11-05T09:04:13.538Z,8.36
2022-11-05T09:06:42.194Z,8.36
2022-11-05T09:09:12.628Z,8.05
2022-11-05T09:12:05.686Z,8.40
2022-11-05T09:14:30.329Z,8.49
2022-11-05T09:16:58.863Z,8.49
2022-11-05T09:19:27.565Z,8.53
2022-11-05T09:21:56.033Z,8.53
2022-11-05T09:24:25.858Z,8.50
2022-11-05T09:26:54.244Z,8.54
2022-11-05T09:29:22.760Z,8.51
2022-11-05T09:31:51.155Z,8.50
2022-11-05T09:34:19.530Z,8.54
2022-11-05T09:36:48.394Z,8.65
2022-11-05T09:39:17.093Z,8.62
2022-11-05T09:41:48.845Z,8.73
2022-11-05T09:44:20.754Z,8.70
2022-11-05T09:46:53.134Z,8.64
2022-11-05T09:49:27.338Z,8.71
2022-11-05T09:51:58.883Z,8.15
2022-11-05T09:54:32.423Z,8.74
2022-11-05T09:57:05.207Z,8.78
2022-11-05T09:59:41.169Z,8.70
2022-11-05T10:02:18.028Z,8.98
2022-11-05T10:04:49.779Z,9.14
2022-11-05T10:07:23.171Z,9.16
2022-11-05T10:09:55.296Z,9.27
2022-11-05T10:12:29.943Z,9.28
2022-11-05T10:15:07.219Z,9.32
2022-11-05T10:17:39.292Z,9.34
2022-11-05T10:20:15.790Z,9.35
2022-11-05T10:22:49.341Z,9.25
2022-11-05T10:25:20.621Z,9.23
2022-11-05T10:27:53.849Z,9.23
2022-11-05T10:30:23.137Z,9.20
2022-11-05T10:32:56.063Z,9.21
2022-11-05T10:35:26.622Z,9.24
2022-11-05T10:37:55.412Z,9.22
2022-11-05T10:40:34.119Z,9.24
2022-11-05T10:43:08.085Z,9.31
2022-11-05T10:45:51.463Z,9.30
2022-11-05T10:48:52.046Z,9.33
2022-11-05T10:51:20.901Z,9.42
2022-11-05T10:54:00.513Z,9.36
2022-11-05T10:56:36.074Z,9.35
2022-11-05T10:59:12.217Z,9.48
2022-11-05T11:01:41.438Z,9.51
2022-11-05T11:04:18.270Z,9.60
2022-11-05T11:06:51.273Z,9.42
2022-11-05T11:09:23.568Z,9.15
2022-11-05T11:12:03.078Z,9.15
2022-11-05T11:14:33.681Z,9.00
2022-11-05T11:17:20.139Z,8.77
2022-11-05T11:19:48.977Z,8.93
2022-11-05T11:22:23.036Z,8.68
2022-11-05T11:24:54.913Z,8.87
2022-11-05T11:27:26.434Z,8.69
2022-11-05T11:30:00.176Z,8.70
2022-11-05T11:32:34.546Z,8.75
2022-11-05T11:35:03.165Z,8.75
2022-11-05T11:37:35.607Z,8.67
2022-11-05T11:40:10.167Z,8.89
2022-11-05T11:42:42.445Z,8.87
2022-11-05T11:45:20.067Z,8.91
2022-11-05T11:47:51.884Z,8.86
2022-11-05T11:50:39.513Z,9.04
2022-11-05T11:53:29.591Z,8.97
2022-11-05T11:56:04.258Z,8.86
2022-11-05T11:58:43.529Z,9.18
2022-11-05T12:01:27.677Z,9.02
2022-11-05T12:04:04.095Z,9.21
2022-11-05T12:06:38.565Z,9.27
2022-11-05T12:09:11.134Z,9.26
2022-11-05T12:11:45.150Z,9.20
2022-11-05T12:14:28.590Z,9.08
2022-11-05T12:17:22.724Z,9.17
2022-11-05T12:20:18.198Z,9.20
2022-11-05T12:23:07.089Z,8.68
2022-11-05T12:25:42.615Z,9.06
2022-11-05T12:28:31.179Z,8.86
2022-11-05T12:31:09.186Z,8.83
2022-11-05T12:33:48.521Z,8.67
2022-11-05T12:36:30.537Z,8.61
2022-11-05T12:39:20.587Z,8.91
2022-11-05T12:41:56.652Z,8.93
2022-11-05T12:44:46.827Z,8.98
2022-11-05T12:47:30.180Z,9.01
2022-11-05T12:50:16.840Z,9.01
2022-11-05T12:53:02.003Z,9.06
2022-11-05T12:55:34.884Z,9.10
2022-11-05T12:58:10.408Z,9.16
2022-11-05T13:00:42.722Z,9.24
2022-11-05T13:03:34.009Z,9.23
2022-11-05T13:06:09.489Z,9.09
2022-11-05T13:08:44.195Z,9.22
2022-11-05T13:11:20.817Z,9.21
2022-11-05T13:13:58.769Z,9.25
2022-11-05T13:16:32.140Z,9.30
2022-11-05T13:19:06.514Z,9.30
2022-11-05T13:21:38.823Z,9.34
2022-11-05T13:24:16.621Z,9.32
2022-11-05T13:26:50.596Z,9.22
2022-11-05T13:29:23.719Z,9.40
2022-11-05T13:32:01.546Z,9.41
2022-11-05T13:34:34.852Z,9.40
2022-11-05T13:37:27.169Z,9.25
2022-11-05T13:39:58.588Z,9.38
2022-11-05T13:42:57.921Z,9.36
2022-11-05T13:45:46.237Z,9.33
2022-11-05T13:48:41.723Z,9.41
2022-11-05T13:51:36.163Z,9.42
2022-11-05T13:54:34.850Z,9.12
2022-11-05T13:57:18.658Z,9.04
2022-11-05T14:00:05.341Z,8.92
2022-11-05T14:02:40.159Z,8.78
2022-11-05T14:05:17.277Z,8.77
2022-11-05T14:07:48.253Z,8.78
2022-11-05T14:10:27.857Z,8.80
2022-11-05T14:12:59.370Z,8.84
2022-11-05T14:15:29.864Z,8.80
2022-11-05T14:18:01.818Z,8.78
2022-11-05T14:20:57.565Z,8.63
2022-11-05T14:23:53.262Z,8.71
2022-11-05T14:26:25.959Z,8.63
2022-11-05T14:29:22.941Z,8.60
2022-11-05T14:32:08.684Z,8.35
2022-11-05T14:34:49.974Z,8.46
2022-11-05T14:37:30.757Z,8.44
2022-11-05T14:40:24.858Z,8.35
2022-11-05T14:42:57.143Z,8.33
2022-11-05T14:45:30.989Z,8.15
2022-11-05T14:48:01.087Z,8.26
2022-11-05T14:50:37.117Z,8.26
2022-11-05T14:53:27.619Z,8.22
2022-11-05T14:56:02.435Z,8.18
2022-11-05T14:58:35.913Z,8.09
2022-11-05T15:01:07.075Z,8.10
2022-11-05T15:04:17.874Z,8.05
2022-11-05T15:07:15.209Z,8.04
2022-11-05T15:09:48.163Z,7.85
2022-11-05T15:12:21.415Z,7.97
2022-11-05T15:14:58.516Z,7.78
2022-11-05T15:17:30.306Z,7.93
2022-11-05T15:20:09.777Z,7.93
2022-11-05T15:22:45.716Z,7.91
2022-11-05T15:25:19.617Z,7.87
2022-11-05T15:28:01.030Z,7.84
2022-11-05T15:30:31.585Z,7.80
2022-11-05T15:33:11.469Z,7.71
2022-11-05T15:35:42.953Z,7.71
2022-11-05T15:38:31.388Z,7.68
2022-11-05T15:41:02.041Z,7.61
2022-11-05T15:43:30.817Z,7.59
2022-11-05T15:46:08.669Z,7.56
2022-11-05T15:48:38.130Z,7.50
2022-11-05T15:51:07.169Z,7.52
2022-11-05T15:54:01.928Z,7.48
2022-11-05T15:56:30.831Z,7.42
2022-11-05T15:59:03.825Z,7.40
2022-11-05T16:01:36.776Z,7.36
2022-11-05T16:04:16.746Z,7.29
2022-11-05T16:06:48.576Z,7.25
2022-11-05T16:09:24.035Z,7.18
2022-11-05T16:12:10.350Z,7.09
2022-11-05T16:14:39.055Z,7.01
2022-11-05T16:17:20.154Z,6.94
2022-11-05T16:19:49.730Z,6.85
2022-11-05T16:22:18.962Z,6.74
2022-11-05T16:24:48.219Z,6.85
2022-11-05T16:27:19.784Z,6.88
2022-11-05T16:29:52.148Z,6.62
2022-11-05T16:32:30.781Z,6.70
2022-11-05T16:35:02.537Z,6.74
2022-11-05T16:37:38.286Z,6.81
2022-11-05T16:40:14.812Z,5.99
2022-11-05T16:42:43.506Z,6.76
2022-11-05T16:45:15.049Z,6.65
2022-11-05T16:47:46.299Z,6.73
2022-11-05T16:50:18.498Z,6.73
2022-11-05T16:52:48.023Z,6.71
2022-11-05T16:55:18.324Z,6.69
2022-11-05T16:57:49.101Z,6.44
2022-11-05T17:00:19.622Z,6.65
2022-11-05T17:02:49.857Z,6.62
2022-11-05T17:05:21.607Z,6.64
2022-11-05T17:07:50.313Z,6.41
2022-11-05T17:10:19.481Z,6.59
2022-11-05T17:12:49.330Z,6.41
2022-11-05T17:15:21.009Z,6.58
2022-11-05T17:17:50.855Z,6.45
2022-11-05T17:20:32.533Z,6.50
2022-11-05T17:23:05.733Z,6.46
2022-11-05T17:25:34.187Z,6.41
2022-11-05T17:28:03.228Z,6.31
2022-11-05T17:30:32.051Z,6.11
2022-11-05T17:33:02.105Z,6.10
2022-11-05T17:35:30.621Z,6.32
2022-11-05T17:37:59.441Z,6.34
2022-11-05T17:40:28.580Z,6.38
2022-11-05T17:42:57.389Z,6.24
2022-11-05T17:45:25.745Z,4.89
2022-11-05T17:47:54.680Z,6.44
2022-11-05T17:50:25.272Z,6.48
2022-11-05T17:52:53.617Z,6.46
2022-11-05T17:55:22.159Z,6.47
2022-11-05T17:57:52.119Z,6.47
2022-11-05T18:00:23.400Z,6.49
2022-11-05T18:02:54.945Z,6.50
2022-11-05T18:05:27.749Z,6.50
2022-11-05T18:07:57.225Z,6.50
2022-11-05T18:10:26.535Z,6.50
2022-11-05T18:12:54.879Z,6.41
2022-11-05T18:15:23.452Z,6.50
2022-11-05T18:17:51.829Z,6.50
2022-11-05T18:20:20.366Z,6.49
2022-11-05T18:22:52.062Z,6.51
2022-11-05T18:25:21.040Z,6.48
2022-11-05T18:27:49.808Z,6.30
2022-11-05T18:30:18.331Z,6.43
2022-11-05T18:32:47.830Z,6.41
2022-11-05T18:35:16.202Z,6.41
2022-11-05T18:37:44.683Z,6.42
2022-11-05T18:40:14.653Z,6.42
2022-11-05T18:42:43.884Z,6.43
2022-11-05T18:45:13.283Z,5.02
2022-11-05T18:47:42.354Z,6.13
2022-11-05T18:50:11.356Z,6.48
2022-11-05T18:52:39.865Z,6.55
2022-11-05T18:55:10.030Z,6.56
2022-11-05T18:57:40.001Z,6.43
2022-11-05T19:00:09.892Z,6.20
2022-11-05T19:02:38.570Z,6.51
2022-11-05T19:05:27.903Z,6.43
2022-11-05T19:07:56.167Z,6.55
2022-11-05T19:10:24.860Z,6.50
2022-11-05T19:12:54.921Z,6.43
2022-11-05T19:15:23.408Z,6.46
2022-11-05T19:17:51.836Z,6.37
2022-11-05T19:20:20.291Z,6.44
2022-11-05T19:22:48.648Z,6.38
2022-11-05T19:25:16.984Z,6.52
2022-11-05T19:27:45.420Z,6.35
2022-11-05T19:30:15.764Z,6.02
2022-11-05T19:32:44.105Z,6.34
2022-11-05T19:35:12.688Z,6.39
2022-11-05T19:37:41.020Z,6.38
2022-11-05T19:40:11.299Z,6.15
2022-11-05T19:42:40.090Z,6.31
2022-11-05T19:45:43.069Z,6.36
2022-11-05T19:47:59.970Z,6.37
2022-11-05T19:50:28.271Z,6.33
2022-11-05T19:52:56.645Z,6.36
2022-11-05T19:55:25.146Z,6.40
2022-11-05T19:57:53.489Z,6.43
2022-11-05T20:00:22.052Z,6.38
2022-11-05T20:02:50.608Z,6.35
2022-11-05T20:05:21.204Z,6.13
2022-11-05T20:07:52.769Z,6.35
2022-11-05T20:10:22.167Z,6.34
2022-11-05T20:12:50.896Z,6.31
2022-11-05T20:15:21.097Z,6.35
2022-11-05T20:17:51.397Z,6.43
2022-11-05T20:20:21.791Z,6.42
2022-11-05T20:22:52.360Z,6.28
2022-11-05T20:25:20.755Z,6.39
2022-11-05T20:27:49.141Z,6.05
2022-11-05T20:30:18.755Z,6.33
2022-11-05T20:32:47.567Z,6.30
2022-11-05T20:35:16.271Z,6.33
2022-11-05T20:37:49.778Z,6.31
2022-11-05T20:40:22.065Z,6.28
2022-11-05T20:42:50.338Z,6.29
2022-11-05T20:45:18.987Z,6.28
2022-11-05T20:47:47.401Z,6.23
2022-11-05T20:50:15.781Z,6.23
2022-11-05T20:52:45.597Z,6.19
2022-11-05T20:55:13.942Z,6.15
2022-11-05T20:57:42.294Z,6.14
2022-11-05T21:00:12.058Z,6.04
2022-11-05T21:02:41.995Z,5.88
2022-11-05T21:05:10.805Z,5.81
2022-11-05T21:07:39.837Z,5.98
2022-11-05T21:10:10.517Z,5.91
2022-11-05T21:12:39.180Z,5.86
2022-11-05T21:15:09.203Z,5.79
2022-11-05T21:17:37.688Z,5.73
2022-11-05T21:20:07.250Z,5.27
2022-11-05T21:22:35.631Z,5.78
2022-11-05T21:25:04.008Z,5.79
2022-11-05T21:27:33.944Z,5.75
2022-11-05T21:30:02.348Z,5.80
2022-11-05T21:32:30.836Z,5.73
2022-11-05T21:34:59.371Z,5.78
2022-11-05T21:37:27.883Z,5.70
2022-11-05T21:39:57.165Z,5.58
2022-11-05T21:42:25.680Z,5.78
2022-11-05T21:45:00.224Z,5.76
2022-11-05T21:47:29.457Z,5.75
2022-11-05T21:49:57.758Z,5.69
2022-11-05T21:52:43.405Z,5.69
2022-11-05T21:55:30.366Z,5.72
2022-11-05T21:58:17.500Z,5.68
2022-11-05T22:00:47.686Z,5.65
2022-11-05T22:03:15.945Z,5.64
2022-11-05T22:05:44.977Z,5.70
2022-11-05T22:08:13.639Z,5.68
2022-11-05T22:10:42.266Z,5.71
2022-11-05T22:13:10.633Z,5.70
2022-11-05T22:15:39.542Z,5.61
2022-11-05T22:18:09.541Z,5.69
2022-11-05T22:20:40.142Z,5.64
2022-11-05T22:23:11.426Z,5.52
2022-11-05T22:25:40.037Z,5.62
2022-11-05T22:28:08.471Z,5.61
2022-11-05T22:30:37.572Z,5.36
2022-11-05T22:33:05.982Z,5.61
2022-11-05T22:35:35.791Z,5.63
2022-11-05T22:38:04.697Z,4.89
2022-11-05T22:40:33.133Z,5.67
2022-11-05T22:43:02.426Z,5.71
2022-11-05T22:45:30.823Z,5.72
2022-11-05T22:48:01.545Z,5.72
2022-11-05T22:50:32.673Z,5.73
2022-11-05T22:53:02.474Z,5.76
2022-11-05T22:55:30.822Z,5.65
2022-11-05T22:57:59.203Z,5.75
2022-11-05T23:00:38.898Z,5.73
2022-11-05T23:03:07.500Z,5.71
2022-11-05T23:05:36.039Z,5.56
2022-11-05T23:08:23.274Z,5.71
2022-11-05T23:11:23.260Z,5.63
2022-11-05T23:13:51.706Z,5.67
2022-11-05T23:16:37.289Z,5.68
2022-11-05T23:19:23.069Z,5.71
2022-11-05T23:22:08.673Z,5.72
2022-11-05T23:24:38.514Z,5.40
2022-11-05T23:27:06.973Z,5.77
2022-11-05T23:29:35.638Z,5.63
2022-11-05T23:32:29.797Z,5.76
2022-11-05T23:34:59.905Z,5.72
2022-11-05T23:37:54.302Z,5.66
2022-11-05T23:40:27.618Z,5.69
2022-11-05T23:43:14.258Z,5.68
2022-11-05T23:46:00.796Z,5.55
2022-11-05T23:48:32.406Z,5.52
2022-11-05T23:51:02.921Z,5.52
2022-11-05T23:53:34.753Z,5.57
2022-11-05T23:56:07.916Z,5.54
2022-11-05T23:58:36.740Z,5.62
